Terminal Aerodrome Forecast
Issued by NWS Boston, MA

Home | Current Version | Previous Version | Text Only | Print | Product List | Glossary Off
Versions: 1 2 3 4 5 6 7 8 9 10 11 12 13 14
000 FTUS41 KBOX 011723 TAFORH TAF KORH 011723Z 0118/0218 16008KT P6SM -SHRA OVC050 FM020100 13004KT P6SM -SHRA OVC035 FM020300 VRB03KT 2SM -DZ BR OVC020 FM020600 10004KT 2SM -DZ BR BKN003 OVC015 FM021100 05004KT 4SM BR VCSH BKN003=

USA.gov is the U.S. government's official web portal to all federal, state and local government web resources and services.